sensor_id;sensor_type;location;lat;lon;timestamp;temperature;humidity
20400;DHT22;10359;53.596;22.520;2022-12-05T00:01:56;0.70;99.90
20400;DHT22;10359;53.596;22.520;2022-12-05T00:04:46;0.70;99.90
20400;DHT22;10359;53.596;22.520;2022-12-05T00:07:36;0.60;99.90
20400;DHT22;10359;53.596;22.520;2022-12-05T00:10:25;0.70;99.90
20400;DHT22;10359;53.596;22.520;2022-12-05T00:13:16;0.70;99.90
20400;DHT22;10359;53.596;22.520;2022-12-05T00:16:07;0.70;99.90
20400;DHT22;10359;53.596;22.520;2022-12-05T00:18:58;0.80;99.90
20400;DHT22;10359;53.596;22.520;2022-12-05T00:21:48;0.80;99.90
20400;DHT22;10359;53.596;22.520;2022-12-05T00:24:38;0.80;99.90
20400;DHT22;10359;53.596;22.520;2022-12-05T00:27:28;0.60;99.90
20400;DHT22;10359;53.596;22.520;2022-12-05T00:30:19;0.50;99.90
20400;DHT22;10359;53.596;22.520;2022-12-05T00:33:08;0.60;99.90
20400;DHT22;10359;53.596;22.520;2022-12-05T00:36:01;0.50;99.90
20400;DHT22;10359;53.596;22.520;2022-12-05T00:38:51;0.40;99.90
20400;DHT22;10359;53.596;22.520;2022-12-05T00:41:42;0.50;99.90
20400;DHT22;10359;53.596;22.520;2022-12-05T00:44:31;0.30;99.90
20400;DHT22;10359;53.596;22.520;2022-12-05T00:47:22;0.40;99.90
20400;DHT22;10359;53.596;22.520;2022-12-05T00:50:12;0.30;99.90
20400;DHT22;10359;53.596;22.520;2022-12-05T00:53:01;0.40;99.90
20400;DHT22;10359;53.596;22.520;2022-12-05T00:55:50;0.40;99.90
20400;DHT22;10359;53.596;22.520;2022-12-05T00:58:40;0.50;99.90
20400;DHT22;10359;53.596;22.520;2022-12-05T01:01:32;0.40;99.90
20400;DHT22;10359;53.596;22.520;2022-12-05T01:04:24;0.40;99.90
20400;DHT22;10359;53.596;22.520;2022-12-05T01:07:14;0.40;99.90
20400;DHT22;10359;53.596;22.520;2022-12-05T01:10:06;0.30;99.90
20400;DHT22;10359;53.596;22.520;2022-12-05T01:12:56;0.40;99.90
20400;DHT22;10359;53.596;22.520;2022-12-05T01:15:45;0.40;99.90
20400;DHT22;10359;53.596;22.520;2022-12-05T01:18:36;0.40;99.90
20400;DHT22;10359;53.596;22.520;2022-12-05T01:21:27;0.30;99.90
20400;DHT22;10359;53.596;22.520;2022-12-05T01:24:17;0.40;99.90
20400;DHT22;10359;53.596;22.520;2022-12-05T01:27:07;0.40;99.90
20400;DHT22;10359;53.596;22.520;2022-12-05T01:29:57;0.50;99.90
20400;DHT22;10359;53.596;22.520;2022-12-05T01:32:48;0.50;99.90
20400;DHT22;10359;53.596;22.520;2022-12-05T01:35:38;0.30;99.90
20400;DHT22;10359;53.596;22.520;2022-12-05T01:38:30;0.30;99.90
20400;DHT22;10359;53.596;22.520;2022-12-05T01:41:21;0.30;99.90
20400;DHT22;10359;53.596;22.520;2022-12-05T01:47:38;0.40;99.90
20400;DHT22;10359;53.596;22.520;2022-12-05T01:50:27;0.30;99.90
20400;DHT22;10359;53.596;22.520;2022-12-05T01:53:17;0.40;99.90
20400;DHT22;10359;53.596;22.520;2022-12-05T01:56:08;0.40;99.90
20400;DHT22;10359;53.596;22.520;2022-12-05T01:58:59;0.30;99.90
20400;DHT22;10359;53.596;22.520;2022-12-05T02:01:49;0.20;99.90
20400;DHT22;10359;53.596;22.520;2022-12-05T02:04:45;0.40;99.90
20400;DHT22;10359;53.596;22.520;2022-12-05T02:07:38;0.40;99.90
20400;DHT22;10359;53.596;22.520;2022-12-05T02:13:14;0.40;99.90
20400;DHT22;10359;53.596;22.520;2022-12-05T02:16:10;0.50;99.90
20400;DHT22;10359;53.596;22.520;2022-12-05T02:22:37;0.40;99.90
20400;DHT22;10359;53.596;22.520;2022-12-05T02:29:17;0.40;99.90
20400;DHT22;10359;53.596;22.520;2022-12-05T02:32:17;0.50;99.90
20400;DHT22;10359;53.596;22.520;2022-12-05T02:35:17;0.40;99.90
20400;DHT22;10359;53.596;22.520;2022-12-05T02:38:21;0.40;99.90
20400;DHT22;10359;53.596;22.520;2022-12-05T02:41:18;0.40;99.90
20400;DHT22;10359;53.596;22.520;2022-12-05T02:44:14;0.50;99.90
20400;DHT22;10359;53.596;22.520;2022-12-05T02:47:05;0.30;99.90
20400;DHT22;10359;53.596;22.520;2022-12-05T02:49:58;0.20;99.90
20400;DHT22;10359;53.596;22.520;2022-12-05T02:52:49;0.20;99.90
20400;DHT22;10359;53.596;22.520;2022-12-05T02:55:42;0.30;99.90
20400;DHT22;10359;53.596;22.520;2022-12-05T02:58:35;0.10;99.90
20400;DHT22;10359;53.596;22.520;2022-12-05T03:01:29;0.10;99.90
20400;DHT22;10359;53.596;22.520;2022-12-05T03:04:23;0.00;99.90
20400;DHT22;10359;53.596;22.520;2022-12-05T03:07:16;0.10;99.90
20400;DHT22;10359;53.596;22.520;2022-12-05T03:10:07;0.20;99.90
20400;DHT22;10359;53.596;22.520;2022-12-05T03:13:03;0.20;99.90
20400;DHT22;10359;53.596;22.520;2022-12-05T03:15:57;0.20;99.90
20400;DHT22;10359;53.596;22.520;2022-12-05T03:18:50;0.20;99.90
20400;DHT22;10359;53.596;22.520;2022-12-05T03:21:48;0.10;99.90
20400;DHT22;10359;53.596;22.520;2022-12-05T03:24:42;0.20;99.90
20400;DHT22;10359;53.596;22.520;2022-12-05T03:27:37;0.30;99.90
20400;DHT22;10359;53.596;22.520;2022-12-05T03:30:30;0.20;99.90
20400;DHT22;10359;53.596;22.520;2022-12-05T03:33:26;0.20;99.90
20400;DHT22;10359;53.596;22.520;2022-12-05T03:36:19;0.20;99.90
20400;DHT22;10359;53.596;22.520;2022-12-05T03:39:17;0.30;99.90
20400;DHT22;10359;53.596;22.520;2022-12-05T03:42:12;0.30;99.90
20400;DHT22;10359;53.596;22.520;2022-12-05T03:45:07;0.30;99.90
20400;DHT22;10359;53.596;22.520;2022-12-05T03:48:06;0.40;99.90
20400;DHT22;10359;53.596;22.520;2022-12-05T03:50:59;0.30;99.90
20400;DHT22;10359;53.596;22.520;2022-12-05T03:53:52;0.40;99.90
20400;DHT22;10359;53.596;22.520;2022-12-05T03:56:45;0.40;99.90
20400;DHT22;10359;53.596;22.520;2022-12-05T03:59:40;0.20;99.90
20400;DHT22;10359;53.596;22.520;2022-12-05T04:02:37;0.20;99.90
20400;DHT22;10359;53.596;22.520;2022-12-05T04:05:37;0.30;99.90
20400;DHT22;10359;53.596;22.520;2022-12-05T04:08:29;0.30;99.90
20400;DHT22;10359;53.596;22.520;2022-12-05T04:11:23;0.30;99.90
20400;DHT22;10359;53.596;22.520;2022-12-05T04:14:16;0.20;99.90
20400;DHT22;10359;53.596;22.520;2022-12-05T04:17:12;0.30;99.90
20400;DHT22;10359;53.596;22.520;2022-12-05T04:20:08;0.30;99.90
20400;DHT22;10359;53.596;22.520;2022-12-05T04:23:16;0.10;99.90
20400;DHT22;10359;53.596;22.520;2022-12-05T04:26:12;0.10;99.90
20400;DHT22;10359;53.596;22.520;2022-12-05T04:29:06;0.10;99.90
20400;DHT22;10359;53.596;22.520;2022-12-05T04:32:00;0.10;99.90
20400;DHT22;10359;53.596;22.520;2022-12-05T04:34:59;0.10;99.90
20400;DHT22;10359;53.596;22.520;2022-12-05T04:37:52;0.20;99.90
20400;DHT22;10359;53.596;22.520;2022-12-05T04:40:48;0.20;99.90
20400;DHT22;10359;53.596;22.520;2022-12-05T04:43:42;0.20;99.90
20400;DHT22;10359;53.596;22.520;2022-12-05T04:46:34;0.20;99.90
20400;DHT22;10359;53.596;22.520;2022-12-05T04:49:25;0.30;99.90
20400;DHT22;10359;53.596;22.520;2022-12-05T04:52:17;0.20;99.90
20400;DHT22;10359;53.596;22.520;2022-12-05T04:55:08;0.20;99.90
20400;DHT22;10359;53.596;22.520;2022-12-05T04:58:05;0.20;99.90
20400;DHT22;10359;53.596;22.520;2022-12-05T05:01:01;0.00;99.90
20400;DHT22;10359;53.596;22.520;2022-12-05T05:03:54;-0.10;99.90
20400;DHT22;10359;53.596;22.520;2022-12-05T05:06:46;0.00;99.90
20400;DHT22;10359;53.596;22.520;2022-12-05T05:09:38;0.10;99.90
20400;DHT22;10359;53.596;22.520;2022-12-05T05:12:27;-0.10;99.90
20400;DHT22;10359;53.596;22.520;2022-12-05T05:15:17;0.00;99.90
20400;DHT22;10359;53.596;22.520;2022-12-05T05:18:07;0.10;99.90
20400;DHT22;10359;53.596;22.520;2022-12-05T05:20:58;0.10;99.90
20400;DHT22;10359;53.596;22.520;2022-12-05T05:23:47;0.20;99.90
20400;DHT22;10359;53.596;22.520;2022-12-05T05:26:40;0.10;99.90
20400;DHT22;10359;53.596;22.520;2022-12-05T05:29:30;0.20;99.90
20400;DHT22;10359;53.596;22.520;2022-12-05T05:32:19;0.20;99.90
20400;DHT22;10359;53.596;22.520;2022-12-05T05:35:09;0.20;99.90
20400;DHT22;10359;53.596;22.520;2022-12-05T05:37:59;0.20;99.90
20400;DHT22;10359;53.596;22.520;2022-12-05T05:40:49;0.00;99.90
20400;DHT22;10359;53.596;22.520;2022-12-05T05:43:41;-0.10;99.90
20400;DHT22;10359;53.596;22.520;2022-12-05T05:46:32;-0.10;99.90
20400;DHT22;10359;53.596;22.520;2022-12-05T05:49:22;-0.10;99.90
20400;DHT22;10359;53.596;22.520;2022-12-05T05:52:11;0.00;99.90
20400;DHT22;10359;53.596;22.520;2022-12-05T05:55:02;0.00;99.90
20400;DHT22;10359;53.596;22.520;2022-12-05T05:57:52;0.10;99.90
20400;DHT22;10359;53.596;22.520;2022-12-05T06:00:43;0.00;99.90
20400;DHT22;10359;53.596;22.520;2022-12-05T06:03:33;-0.10;99.90
20400;DHT22;10359;53.596;22.520;2022-12-05T06:06:23;-0.10;99.90
20400;DHT22;10359;53.596;22.520;2022-12-05T06:09:13;0.00;99.90
20400;DHT22;10359;53.596;22.520;2022-12-05T06:12:03;0.10;99.90
20400;DHT22;10359;53.596;22.520;2022-12-05T06:14:52;-0.10;99.90
20400;DHT22;10359;53.596;22.520;2022-12-05T06:17:44;0.00;99.90
20400;DHT22;10359;53.596;22.520;2022-12-05T06:20:33;0.00;99.90
20400;DHT22;10359;53.596;22.520;2022-12-05T06:23:23;-0.10;99.90
20400;DHT22;10359;53.596;22.520;2022-12-05T06:26:15;0.00;99.90
20400;DHT22;10359;53.596;22.520;2022-12-05T06:29:05;0.00;99.90
20400;DHT22;10359;53.596;22.520;2022-12-05T06:31:54;0.00;99.90
20400;DHT22;10359;53.596;22.520;2022-12-05T06:34:45;0.10;99.90
20400;DHT22;10359;53.596;22.520;2022-12-05T06:37:35;0.00;99.90
20400;DHT22;10359;53.596;22.520;2022-12-05T06:40:25;-0.10;99.90
20400;DHT22;10359;53.596;22.520;2022-12-05T06:43:15;-0.20;99.90
20400;DHT22;10359;53.596;22.520;2022-12-05T06:46:05;-0.10;99.90
20400;DHT22;10359;53.596;22.520;2022-12-05T06:48:55;-0.10;99.90
20400;DHT22;10359;53.596;22.520;2022-12-05T06:51:47;-0.20;99.90
20400;DHT22;10359;53.596;22.520;2022-12-05T06:54:36;-0.20;99.90
20400;DHT22;10359;53.596;22.520;2022-12-05T06:57:27;0.00;99.90
20400;DHT22;10359;53.596;22.520;2022-12-05T07:00:17;0.00;99.90
20400;DHT22;10359;53.596;22.520;2022-12-05T07:03:24;0.00;99.90
20400;DHT22;10359;53.596;22.520;2022-12-05T07:06:14;0.00;99.90
20400;DHT22;10359;53.596;22.520;2022-12-05T07:09:05;0.00;99.90
20400;DHT22;10359;53.596;22.520;2022-12-05T07:11:55;-0.10;99.90
20400;DHT22;10359;53.596;22.520;2022-12-05T07:14:45;-0.10;99.90
20400;DHT22;10359;53.596;22.520;2022-12-05T07:17:37;-0.20;99.90
20400;DHT22;10359;53.596;22.520;2022-12-05T07:20:27;-0.10;99.90
20400;DHT22;10359;53.596;22.520;2022-12-05T07:23:37;-0.20;99.90
20400;DHT22;10359;53.596;22.520;2022-12-05T07:26:28;-0.10;99.90
20400;DHT22;10359;53.596;22.520;2022-12-05T07:29:17;-0.10;99.90
20400;DHT22;10359;53.596;22.520;2022-12-05T07:32:07;-0.20;99.90
20400;DHT22;10359;53.596;22.520;2022-12-05T07:34:57;-0.20;99.90
20400;DHT22;10359;53.596;22.520;2022-12-05T07:37:47;-0.10;99.90
20400;DHT22;10359;53.596;22.520;2022-12-05T07:40:36;0.00;99.90
20400;DHT22;10359;53.596;22.520;2022-12-05T07:43:27;-0.20;99.90
20400;DHT22;10359;53.596;22.520;2022-12-05T07:46:17;-0.10;99.90
20400;DHT22;10359;53.596;22.520;2022-12-05T07:49:07;-0.10;99.90
20400;DHT22;10359;53.596;22.520;2022-12-05T07:51:56;-0.10;99.90
20400;DHT22;10359;53.596;22.520;2022-12-05T07:54:45;-0.30;99.90
20400;DHT22;10359;53.596;22.520;2022-12-05T07:57:35;-0.30;99.90
20400;DHT22;10359;53.596;22.520;2022-12-05T08:00:26;-0.30;99.90
20400;DHT22;10359;53.596;22.520;2022-12-05T08:03:15;-0.30;99.90
20400;DHT22;10359;53.596;22.520;2022-12-05T08:06:06;-0.20;99.90
20400;DHT22;10359;53.596;22.520;2022-12-05T08:08:56;-0.20;99.90
20400;DHT22;10359;53.596;22.520;2022-12-05T08:11:45;-0.20;99.90
20400;DHT22;10359;53.596;22.520;2022-12-05T08:14:39;-0.20;99.90
20400;DHT22;10359;53.596;22.520;2022-12-05T08:17:30;-0.30;99.90
20400;DHT22;10359;53.596;22.520;2022-12-05T08:20:20;-0.20;99.90
20400;DHT22;10359;53.596;22.520;2022-12-05T08:23:09;-0.30;99.90
20400;DHT22;10359;53.596;22.520;2022-12-05T08:26:01;-0.40;99.90
20400;DHT22;10359;53.596;22.520;2022-12-05T08:28:51;-0.30;99.90
20400;DHT22;10359;53.596;22.520;2022-12-05T08:31:43;-0.30;99.90
20400;DHT22;10359;53.596;22.520;2022-12-05T08:34:35;-0.30;99.90
20400;DHT22;10359;53.596;22.520;2022-12-05T08:37:24;-0.20;99.90
20400;DHT22;10359;53.596;22.520;2022-12-05T08:40:14;-0.20;99.90
20400;DHT22;10359;53.596;22.520;2022-12-05T08:43:04;0.00;99.90
20400;DHT22;10359;53.596;22.520;2022-12-05T08:45:53;-0.10;99.90
20400;DHT22;10359;53.596;22.520;2022-12-05T08:48:42;0.10;99.90
20400;DHT22;10359;53.596;22.520;2022-12-05T08:51:33;0.10;99.90
20400;DHT22;10359;53.596;22.520;2022-12-05T08:54:23;0.10;99.90
20400;DHT22;10359;53.596;22.520;2022-12-05T08:57:13;0.10;99.90
20400;DHT22;10359;53.596;22.520;2022-12-05T09:00:03;0.10;99.90
20400;DHT22;10359;53.596;22.520;2022-12-05T09:02:53;0.20;99.90
20400;DHT22;10359;53.596;22.520;2022-12-05T09:05:43;0.20;99.90
20400;DHT22;10359;53.596;22.520;2022-12-05T09:08:34;0.30;99.90
20400;DHT22;10359;53.596;22.520;2022-12-05T09:11:25;0.30;99.90
20400;DHT22;10359;53.596;22.520;2022-12-05T09:14:15;0.30;99.90
20400;DHT22;10359;53.596;22.520;2022-12-05T09:17:05;0.10;99.90
20400;DHT22;10359;53.596;22.520;2022-12-05T09:19:55;0.20;99.90
20400;DHT22;10359;53.596;22.520;2022-12-05T09:22:45;0.00;99.90
20400;DHT22;10359;53.596;22.520;2022-12-05T09:25:36;-0.10;99.90
20400;DHT22;10359;53.596;22.520;2022-12-05T09:28:25;0.10;99.90
20400;DHT22;10359;53.596;22.520;2022-12-05T09:31:16;0.10;99.90
20400;DHT22;10359;53.596;22.520;2022-12-05T09:34:06;0.10;99.90
20400;DHT22;10359;53.596;22.520;2022-12-05T09:36:56;0.10;99.90
20400;DHT22;10359;53.596;22.520;2022-12-05T09:40:06;0.20;99.90
20400;DHT22;10359;53.596;22.520;2022-12-05T09:43:02;0.20;99.90
20400;DHT22;10359;53.596;22.520;2022-12-05T09:45:57;0.20;99.90
20400;DHT22;10359;53.596;22.520;2022-12-05T09:48:49;0.30;99.90
20400;DHT22;10359;53.596;22.520;2022-12-05T09:51:42;0.30;99.90
20400;DHT22;10359;53.596;22.520;2022-12-05T09:54:38;0.10;99.90
20400;DHT22;10359;53.596;22.520;2022-12-05T09:57:32;0.20;99.90
20400;DHT22;10359;53.596;22.520;2022-12-05T10:00:25;0.10;99.90
20400;DHT22;10359;53.596;22.520;2022-12-05T10:03:23;0.10;99.90
20400;DHT22;10359;53.596;22.520;2022-12-05T10:06:19;0.10;99.90
20400;DHT22;10359;53.596;22.520;2022-12-05T10:09:24;0.20;99.90
20400;DHT22;10359;53.596;22.520;2022-12-05T10:12:22;0.10;99.90
20400;DHT22;10359;53.596;22.520;2022-12-05T10:15:22;0.20;99.90
20400;DHT22;10359;53.596;22.520;2022-12-05T10:18:25;0.10;99.90
20400;DHT22;10359;53.596;22.520;2022-12-05T10:21:20;0.00;99.90
20400;DHT22;10359;53.596;22.520;2022-12-05T10:24:15;-0.10;99.90
20400;DHT22;10359;53.596;22.520;2022-12-05T10:27:07;0.20;99.90
20400;DHT22;10359;53.596;22.520;2022-12-05T10:30:02;0.30;99.90
20400;DHT22;10359;53.596;22.520;2022-12-05T10:32:54;0.30;99.90
20400;DHT22;10359;53.596;22.520;2022-12-05T10:35:45;0.40;99.90
20400;DHT22;10359;53.596;22.520;2022-12-05T10:38:38;0.30;99.90
20400;DHT22;10359;53.596;22.520;2022-12-05T10:41:28;0.30;99.90
20400;DHT22;10359;53.596;22.520;2022-12-05T10:44:17;0.30;99.90
20400;DHT22;10359;53.596;22.520;2022-12-05T10:47:07;0.40;99.90
20400;DHT22;10359;53.596;22.520;2022-12-05T10:50:01;0.40;99.90
20400;DHT22;10359;53.596;22.520;2022-12-05T10:52:54;0.40;99.90
20400;DHT22;10359;53.596;22.520;2022-12-05T10:55:45;0.50;99.90
20400;DHT22;10359;53.596;22.520;2022-12-05T10:58:56;0.70;99.90
20400;DHT22;10359;53.596;22.520;2022-12-05T11:01:48;0.70;99.90
20400;DHT22;10359;53.596;22.520;2022-12-05T11:04:42;0.70;99.90
20400;DHT22;10359;53.596;22.520;2022-12-05T11:07:34;0.70;99.90
20400;DHT22;10359;53.596;22.520;2022-12-05T11:10:29;0.80;99.90
20400;DHT22;10359;53.596;22.520;2022-12-05T11:13:24;0.60;99.90
20400;DHT22;10359;53.596;22.520;2022-12-05T11:16:23;0.70;99.90
20400;DHT22;10359;53.596;22.520;2022-12-05T11:19:22;0.70;99.90
20400;DHT22;10359;53.596;22.520;2022-12-05T11:22:16;0.60;99.90
20400;DHT22;10359;53.596;22.520;2022-12-05T11:25:28;0.60;99.90
20400;DHT22;10359;53.596;22.520;2022-12-05T11:28:35;0.50;99.90
20400;DHT22;10359;53.596;22.520;2022-12-05T11:31:27;0.70;99.90
20400;DHT22;10359;53.596;22.520;2022-12-05T11:34:20;0.50;99.90
20400;DHT22;10359;53.596;22.520;2022-12-05T11:37:14;0.60;99.90
20400;DHT22;10359;53.596;22.520;2022-12-05T11:40:14;0.60;99.90
20400;DHT22;10359;53.596;22.520;2022-12-05T11:43:28;0.50;99.90
20400;DHT22;10359;53.596;22.520;2022-12-05T11:46:30;0.60;99.90
20400;DHT22;10359;53.596;22.520;2022-12-05T11:49:38;0.60;99.90
20400;DHT22;10359;53.596;22.520;2022-12-05T11:52:37;0.60;99.90
20400;DHT22;10359;53.596;22.520;2022-12-05T11:55:33;0.70;99.90
20400;DHT22;10359;53.596;22.520;2022-12-05T11:58:41;0.60;99.90
20400;DHT22;10359;53.596;22.520;2022-12-05T12:01:39;0.60;99.90
20400;DHT22;10359;53.596;22.520;2022-12-05T12:04:49;0.70;99.90
20400;DHT22;10359;53.596;22.520;2022-12-05T12:07:52;0.50;99.90
20400;DHT22;10359;53.596;22.520;2022-12-05T12:10:51;0.60;99.90
20400;DHT22;10359;53.596;22.520;2022-12-05T12:13:55;0.60;99.90
20400;DHT22;10359;53.596;22.520;2022-12-05T12:16:57;0.50;99.90
20400;DHT22;10359;53.596;22.520;2022-12-05T12:23:31;0.60;99.90
20400;DHT22;10359;53.596;22.520;2022-12-05T12:26:34;0.70;99.90
20400;DHT22;10359;53.596;22.520;2022-12-05T12:29:41;0.60;99.90
20400;DHT22;10359;53.596;22.520;2022-12-05T12:32:39;0.70;99.90
20400;DHT22;10359;53.596;22.520;2022-12-05T12:35:39;0.60;99.90
20400;DHT22;10359;53.596;22.520;2022-12-05T12:38:43;0.50;99.90
20400;DHT22;10359;53.596;22.520;2022-12-05T12:42:05;0.50;99.90
20400;DHT22;10359;53.596;22.520;2022-12-05T12:45:26;0.50;99.90
20400;DHT22;10359;53.596;22.520;2022-12-05T12:48:37;0.60;99.90
20400;DHT22;10359;53.596;22.520;2022-12-05T12:51:31;0.60;99.90
20400;DHT22;10359;53.596;22.520;2022-12-05T12:54:39;0.60;99.90
20400;DHT22;10359;53.596;22.520;2022-12-05T12:58:02;0.50;99.90
20400;DHT22;10359;53.596;22.520;2022-12-05T13:01:01;0.50;99.90
20400;DHT22;10359;53.596;22.520;2022-12-05T13:03:55;0.50;99.90
20400;DHT22;10359;53.596;22.520;2022-12-05T13:06:52;0.50;99.90
20400;DHT22;10359;53.596;22.520;2022-12-05T13:09:46;0.50;99.90
20400;DHT22;10359;53.596;22.520;2022-12-05T13:12:40;0.50;99.90
20400;DHT22;10359;53.596;22.520;2022-12-05T13:15:33;0.50;99.90
20400;DHT22;10359;53.596;22.520;2022-12-05T13:18:29;0.50;99.90
20400;DHT22;10359;53.596;22.520;2022-12-05T13:21:18;0.60;99.90
20400;DHT22;10359;53.596;22.520;2022-12-05T13:24:11;0.50;99.90
20400;DHT22;10359;53.596;22.520;2022-12-05T13:27:05;0.50;99.90
20400;DHT22;10359;53.596;22.520;2022-12-05T13:29:56;0.40;99.90
20400;DHT22;10359;53.596;22.520;2022-12-05T13:32:54;0.40;99.90
20400;DHT22;10359;53.596;22.520;2022-12-05T13:35:46;0.50;99.90
20400;DHT22;10359;53.596;22.520;2022-12-05T13:38:57;0.50;99.90
20400;DHT22;10359;53.596;22.520;2022-12-05T13:42:04;0.40;99.90
20400;DHT22;10359;53.596;22.520;2022-12-05T13:45:07;0.30;99.90
20400;DHT22;10359;53.596;22.520;2022-12-05T13:48:18;0.40;99.90
20400;DHT22;10359;53.596;22.520;2022-12-05T13:51:13;0.40;99.90
20400;DHT22;10359;53.596;22.520;2022-12-05T13:54:13;0.30;99.90
20400;DHT22;10359;53.596;22.520;2022-12-05T13:57:03;0.40;99.90
20400;DHT22;10359;53.596;22.520;2022-12-05T14:00:04;0.40;99.90
20400;DHT22;10359;53.596;22.520;2022-12-05T14:03:53;0.50;99.90
20400;DHT22;10359;53.596;22.520;2022-12-05T14:06:57;0.30;99.90
20400;DHT22;10359;53.596;22.520;2022-12-05T14:09:51;0.30;99.90
20400;DHT22;10359;53.596;22.520;2022-12-05T14:12:59;0.30;99.90
20400;DHT22;10359;53.596;22.520;2022-12-05T14:15:50;0.30;99.90
20400;DHT22;10359;53.596;22.520;2022-12-05T14:18:44;0.40;99.90
20400;DHT22;10359;53.596;22.520;2022-12-05T14:21:40;0.30;99.90
20400;DHT22;10359;53.596;22.520;2022-12-05T14:24:34;0.30;99.90
20400;DHT22;10359;53.596;22.520;2022-12-05T14:27:41;0.30;99.90
20400;DHT22;10359;53.596;22.520;2022-12-05T14:30:44;0.30;99.90
20400;DHT22;10359;53.596;22.520;2022-12-05T14:33:37;0.30;99.90
20400;DHT22;10359;53.596;22.520;2022-12-05T14:36:26;0.30;99.90
20400;DHT22;10359;53.596;22.520;2022-12-05T14:39:21;0.30;99.90
20400;DHT22;10359;53.596;22.520;2022-12-05T14:42:32;0.30;99.90
20400;DHT22;10359;53.596;22.520;2022-12-05T14:45:27;0.20;99.90
20400;DHT22;10359;53.596;22.520;2022-12-05T14:48:26;0.20;99.90
20400;DHT22;10359;53.596;22.520;2022-12-05T14:51:42;0.20;99.90
20400;DHT22;10359;53.596;22.520;2022-12-05T14:54:32;0.20;99.90
20400;DHT22;10359;53.596;22.520;2022-12-05T14:57:22;0.20;99.90
20400;DHT22;10359;53.596;22.520;2022-12-05T15:00:17;0.20;99.90
20400;DHT22;10359;53.596;22.520;2022-12-05T15:03:23;0.30;99.90
20400;DHT22;10359;53.596;22.520;2022-12-05T15:06:14;0.20;99.90
20400;DHT22;10359;53.596;22.520;2022-12-05T15:09:15;0.20;99.90
20400;DHT22;10359;53.596;22.520;2022-12-05T15:12:27;0.20;99.90
20400;DHT22;10359;53.596;22.520;2022-12-05T15:15:30;0.30;99.90
20400;DHT22;10359;53.596;22.520;2022-12-05T15:18:27;0.30;99.90
20400;DHT22;10359;53.596;22.520;2022-12-05T15:21:22;0.30;99.90
20400;DHT22;10359;53.596;22.520;2022-12-05T15:24:14;0.30;99.90
20400;DHT22;10359;53.596;22.520;2022-12-05T15:27:06;0.20;99.90
20400;DHT22;10359;53.596;22.520;2022-12-05T15:29:59;0.20;99.90
20400;DHT22;10359;53.596;22.520;2022-12-05T15:32:50;0.10;99.90
20400;DHT22;10359;53.596;22.520;2022-12-05T15:35:47;0.10;99.90
20400;DHT22;10359;53.596;22.520;2022-12-05T15:38:38;0.10;99.90
20400;DHT22;10359;53.596;22.520;2022-12-05T15:41:27;0.20;99.90
20400;DHT22;10359;53.596;22.520;2022-12-05T15:44:17;0.10;99.90
20400;DHT22;10359;53.596;22.520;2022-12-05T15:47:19;0.20;99.90
20400;DHT22;10359;53.596;22.520;2022-12-05T15:50:14;0.20;99.90
20400;DHT22;10359;53.596;22.520;2022-12-05T15:53:10;0.00;99.90
20400;DHT22;10359;53.596;22.520;2022-12-05T15:56:05;0.10;99.90
20400;DHT22;10359;53.596;22.520;2022-12-05T15:59:00;0.20;99.90
20400;DHT22;10359;53.596;22.520;2022-12-05T16:01:54;0.20;99.90
20400;DHT22;10359;53.596;22.520;2022-12-05T16:04:47;0.30;99.90
20400;DHT22;10359;53.596;22.520;2022-12-05T16:07:39;0.20;99.90
20400;DHT22;10359;53.596;22.520;2022-12-05T16:10:30;0.30;99.90
20400;DHT22;10359;53.596;22.520;2022-12-05T16:13:24;0.30;99.90
20400;DHT22;10359;53.596;22.520;2022-12-05T16:16:16;0.30;99.90
20400;DHT22;10359;53.596;22.520;2022-12-05T16:19:14;0.20;99.90
20400;DHT22;10359;53.596;22.520;2022-12-05T16:22:06;0.10;99.90
20400;DHT22;10359;53.596;22.520;2022-12-05T16:25:01;0.10;99.90
20400;DHT22;10359;53.596;22.520;2022-12-05T16:27:59;0.10;99.90
20400;DHT22;10359;53.596;22.520;2022-12-05T16:30:54;0.10;99.90
20400;DHT22;10359;53.596;22.520;2022-12-05T16:33:44;0.20;99.90
20400;DHT22;10359;53.596;22.520;2022-12-05T16:36:34;0.20;99.90
20400;DHT22;10359;53.596;22.520;2022-12-05T16:39:25;0.20;99.90
20400;DHT22;10359;53.596;22.520;2022-12-05T16:42:23;0.30;99.90
20400;DHT22;10359;53.596;22.520;2022-12-05T16:45:36;0.30;99.90
20400;DHT22;10359;53.596;22.520;2022-12-05T16:48:27;0.10;99.90
20400;DHT22;10359;53.596;22.520;2022-12-05T16:51:19;0.10;99.90
20400;DHT22;10359;53.596;22.520;2022-12-05T16:54:09;0.10;99.90
20400;DHT22;10359;53.596;22.520;2022-12-05T16:57:00;0.10;99.90
20400;DHT22;10359;53.596;22.520;2022-12-05T16:59:50;0.10;99.90
20400;DHT22;10359;53.596;22.520;2022-12-05T17:02:40;0.10;99.90
20400;DHT22;10359;53.596;22.520;2022-12-05T17:05:30;0.30;99.90
20400;DHT22;10359;53.596;22.520;2022-12-05T17:08:20;0.30;99.90
20400;DHT22;10359;53.596;22.520;2022-12-05T17:11:14;0.30;99.90
20400;DHT22;10359;53.596;22.520;2022-12-05T17:14:08;0.20;99.90
20400;DHT22;10359;53.596;22.520;2022-12-05T17:17:00;0.10;99.90
20400;DHT22;10359;53.596;22.520;2022-12-05T17:19:53;0.20;99.90
20400;DHT22;10359;53.596;22.520;2022-12-05T17:22:42;0.30;99.90
20400;DHT22;10359;53.596;22.520;2022-12-05T17:25:36;0.30;99.90
20400;DHT22;10359;53.596;22.520;2022-12-05T17:28:27;0.30;99.90
20400;DHT22;10359;53.596;22.520;2022-12-05T17:31:20;0.30;99.90
20400;DHT22;10359;53.596;22.520;2022-12-05T17:34:14;0.20;99.90
20400;DHT22;10359;53.596;22.520;2022-12-05T17:37:04;0.10;99.90
20400;DHT22;10359;53.596;22.520;2022-12-05T17:39:53;0.10;99.90
20400;DHT22;10359;53.596;22.520;2022-12-05T17:42:44;0.20;99.90
20400;DHT22;10359;53.596;22.520;2022-12-05T17:45:34;0.20;99.90
20400;DHT22;10359;53.596;22.520;2022-12-05T17:48:24;0.20;99.90
20400;DHT22;10359;53.596;22.520;2022-12-05T17:51:17;0.20;99.90
20400;DHT22;10359;53.596;22.520;2022-12-05T17:54:10;0.30;99.90
20400;DHT22;10359;53.596;22.520;2022-12-05T17:57:00;0.20;99.90
20400;DHT22;10359;53.596;22.520;2022-12-05T17:59:50;0.20;99.90
20400;DHT22;10359;53.596;22.520;2022-12-05T18:02:39;0.20;99.90
20400;DHT22;10359;53.596;22.520;2022-12-05T18:05:29;0.20;99.90
20400;DHT22;10359;53.596;22.520;2022-12-05T18:08:20;0.30;99.90
20400;DHT22;10359;53.596;22.520;2022-12-05T18:11:11;0.30;99.90
20400;DHT22;10359;53.596;22.520;2022-12-05T18:14:01;0.20;99.90
20400;DHT22;10359;53.596;22.520;2022-12-05T18:16:50;0.20;99.90
20400;DHT22;10359;53.596;22.520;2022-12-05T18:19:39;0.10;99.90
20400;DHT22;10359;53.596;22.520;2022-12-05T18:22:29;0.10;99.90
20400;DHT22;10359;53.596;22.520;2022-12-05T18:25:20;0.10;99.90
20400;DHT22;10359;53.596;22.520;2022-12-05T18:28:12;0.20;99.90
20400;DHT22;10359;53.596;22.520;2022-12-05T18:31:08;0.30;99.90
20400;DHT22;10359;53.596;22.520;2022-12-05T18:34:02;0.30;99.90
20400;DHT22;10359;53.596;22.520;2022-12-05T18:36:52;0.30;99.90